sensor_id;sensor_type;location;lat;lon;timestamp;P1;durP1;ratioP1;P2;durP2;ratioP2
6288;SDS011;3177;49.880;8.836;2023-01-29T00:01:09;14.97;;;9.37;;
6288;SDS011;3177;49.880;8.836;2023-01-29T00:03:36;12.43;;;8.53;;
6288;SDS011;3177;49.880;8.836;2023-01-29T00:06:05;13.33;;;9.07;;
6288;SDS011;3177;49.880;8.836;2023-01-29T00:08:32;13.27;;;8.57;;
6288;SDS011;3177;49.880;8.836;2023-01-29T00:11:00;11.57;;;8.80;;
6288;SDS011;3177;49.880;8.836;2023-01-29T00:13:27;12.90;;;9.47;;
6288;SDS011;3177;49.880;8.836;2023-01-29T00:15:54;15.13;;;9.57;;
6288;SDS011;3177;49.880;8.836;2023-01-29T00:18:22;11.13;;;8.57;;
6288;SDS011;3177;49.880;8.836;2023-01-29T00:20:49;12.80;;;9.60;;
6288;SDS011;3177;49.880;8.836;2023-01-29T00:23:18;13.03;;;8.30;;
6288;SDS011;3177;49.880;8.836;2023-01-29T00:25:45;12.83;;;8.90;;
6288;SDS011;3177;49.880;8.836;2023-01-29T00:28:12;10.13;;;8.47;;
6288;SDS011;3177;49.880;8.836;2023-01-29T00:30:40;13.10;;;8.47;;
6288;SDS011;3177;49.880;8.836;2023-01-29T00:33:07;14.10;;;8.83;;
6288;SDS011;3177;49.880;8.836;2023-01-29T00:35:37;11.70;;;9.00;;
6288;SDS011;3177;49.880;8.836;2023-01-29T00:38:05;13.77;;;8.73;;
6288;SDS011;3177;49.880;8.836;2023-01-29T00:40:35;12.17;;;8.93;;
6288;SDS011;3177;49.880;8.836;2023-01-29T00:43:16;11.83;;;8.40;;
6288;SDS011;3177;49.880;8.836;2023-01-29T00:46:01;12.73;;;8.50;;
6288;SDS011;3177;49.880;8.836;2023-01-29T00:48:30;11.33;;;8.30;;
6288;SDS011;3177;49.880;8.836;2023-01-29T00:50:57;11.63;;;8.57;;
6288;SDS011;3177;49.880;8.836;2023-01-29T00:53:24;12.60;;;8.63;;
6288;SDS011;3177;49.880;8.836;2023-01-29T00:55:53;11.63;;;8.20;;
6288;SDS011;3177;49.880;8.836;2023-01-29T00:58:20;11.33;;;7.97;;
6288;SDS011;3177;49.880;8.836;2023-01-29T01:00:52;12.90;;;8.60;;
6288;SDS011;3177;49.880;8.836;2023-01-29T01:03:19;10.07;;;7.63;;
6288;SDS011;3177;49.880;8.836;2023-01-29T01:05:45;12.70;;;8.33;;
6288;SDS011;3177;49.880;8.836;2023-01-29T01:08:12;10.20;;;8.53;;
6288;SDS011;3177;49.880;8.836;2023-01-29T01:11:05;10.80;;;8.43;;
6288;SDS011;3177;49.880;8.836;2023-01-29T01:13:33;15.17;;;9.43;;
6288;SDS011;3177;49.880;8.836;2023-01-29T01:16:00;12.50;;;8.10;;
6288;SDS011;3177;49.880;8.836;2023-01-29T01:18:28;11.87;;;7.50;;
6288;SDS011;3177;49.880;8.836;2023-01-29T01:20:56;16.30;;;8.93;;
6288;SDS011;3177;49.880;8.836;2023-01-29T01:23:23;11.33;;;8.67;;
6288;SDS011;3177;49.880;8.836;2023-01-29T01:25:51;11.90;;;8.57;;
6288;SDS011;3177;49.880;8.836;2023-01-29T01:28:20;10.87;;;9.03;;
6288;SDS011;3177;49.880;8.836;2023-01-29T01:30:47;13.47;;;8.70;;
6288;SDS011;3177;49.880;8.836;2023-01-29T01:33:14;13.30;;;8.77;;
6288;SDS011;3177;49.880;8.836;2023-01-29T01:35:41;13.20;;;8.83;;
6288;SDS011;3177;49.880;8.836;2023-01-29T01:38:08;12.63;;;8.87;;
6288;SDS011;3177;49.880;8.836;2023-01-29T01:40:36;13.50;;;8.47;;
6288;SDS011;3177;49.880;8.836;2023-01-29T01:43:09;10.30;;;7.67;;
6288;SDS011;3177;49.880;8.836;2023-01-29T01:45:38;12.87;;;8.97;;
6288;SDS011;3177;49.880;8.836;2023-01-29T01:48:07;13.07;;;8.87;;
6288;SDS011;3177;49.880;8.836;2023-01-29T01:50:37;11.33;;;8.77;;
6288;SDS011;3177;49.880;8.836;2023-01-29T01:53:08;12.67;;;8.30;;
6288;SDS011;3177;49.880;8.836;2023-01-29T01:55:36;10.57;;;7.90;;
6288;SDS011;3177;49.880;8.836;2023-01-29T01:58:05;12.23;;;8.60;;
6288;SDS011;3177;49.880;8.836;2023-01-29T02:00:34;12.00;;;8.00;;
6288;SDS011;3177;49.880;8.836;2023-01-29T02:03:02;10.67;;;8.77;;
6288;SDS011;3177;49.880;8.836;2023-01-29T02:05:48;11.80;;;8.20;;
6288;SDS011;3177;49.880;8.836;2023-01-29T02:08:35;11.50;;;8.10;;
6288;SDS011;3177;49.880;8.836;2023-01-29T02:11:21;13.13;;;8.70;;
6288;SDS011;3177;49.880;8.836;2023-01-29T02:13:48;12.10;;;7.43;;
6288;SDS011;3177;49.880;8.836;2023-01-29T02:16:17;9.53;;;7.50;;
6288;SDS011;3177;49.880;8.836;2023-01-29T02:18:46;10.70;;;8.07;;
6288;SDS011;3177;49.880;8.836;2023-01-29T02:24:08;10.80;;;8.20;;
6288;SDS011;3177;49.880;8.836;2023-01-29T02:26:44;12.97;;;7.70;;
6288;SDS011;3177;49.880;8.836;2023-01-29T02:29:18;10.87;;;8.20;;
6288;SDS011;3177;49.880;8.836;2023-01-29T02:34:16;11.20;;;7.90;;
6288;SDS011;3177;49.880;8.836;2023-01-29T02:36:49;14.03;;;8.20;;
6288;SDS011;3177;49.880;8.836;2023-01-29T02:39:19;10.77;;;8.07;;
6288;SDS011;3177;49.880;8.836;2023-01-29T02:41:50;13.73;;;8.30;;
6288;SDS011;3177;49.880;8.836;2023-01-29T02:44:21;12.40;;;8.37;;
6288;SDS011;3177;49.880;8.836;2023-01-29T02:46:51;12.53;;;9.37;;
6288;SDS011;3177;49.880;8.836;2023-01-29T02:49:21;12.33;;;9.10;;
6288;SDS011;3177;49.880;8.836;2023-01-29T02:51:50;13.03;;;9.60;;
6288;SDS011;3177;49.880;8.836;2023-01-29T02:54:20;13.57;;;8.90;;
6288;SDS011;3177;49.880;8.836;2023-01-29T02:56:50;13.27;;;8.60;;
6288;SDS011;3177;49.880;8.836;2023-01-29T02:59:19;21.83;;;8.33;;
6288;SDS011;3177;49.880;8.836;2023-01-29T03:01:52;12.27;;;8.77;;
6288;SDS011;3177;49.880;8.836;2023-01-29T03:04:21;11.27;;;8.33;;
6288;SDS011;3177;49.880;8.836;2023-01-29T03:06:50;10.93;;;8.17;;
6288;SDS011;3177;49.880;8.836;2023-01-29T03:09:20;9.73;;;7.97;;
6288;SDS011;3177;49.880;8.836;2023-01-29T03:11:50;12.43;;;9.00;;
6288;SDS011;3177;49.880;8.836;2023-01-29T03:14:19;12.23;;;8.47;;
6288;SDS011;3177;49.880;8.836;2023-01-29T03:16:48;11.13;;;8.43;;
6288;SDS011;3177;49.880;8.836;2023-01-29T03:19:18;11.80;;;8.57;;
6288;SDS011;3177;49.880;8.836;2023-01-29T03:21:46;11.73;;;8.80;;
6288;SDS011;3177;49.880;8.836;2023-01-29T03:24:25;9.80;;;7.80;;
6288;SDS011;3177;49.880;8.836;2023-01-29T03:27:12;12.00;;;8.53;;
6288;SDS011;3177;49.880;8.836;2023-01-29T03:29:59;11.77;;;8.67;;
6288;SDS011;3177;49.880;8.836;2023-01-29T03:32:45;11.07;;;7.97;;
6288;SDS011;3177;49.880;8.836;2023-01-29T03:35:17;13.20;;;8.73;;
6288;SDS011;3177;49.880;8.836;2023-01-29T03:38:01;11.67;;;8.23;;
6288;SDS011;3177;49.880;8.836;2023-01-29T03:40:28;11.30;;;8.20;;
6288;SDS011;3177;49.880;8.836;2023-01-29T03:43:04;10.67;;;7.63;;
6288;SDS011;3177;49.880;8.836;2023-01-29T03:45:36;10.73;;;7.93;;
6288;SDS011;3177;49.880;8.836;2023-01-29T03:48:07;9.17;;;7.37;;
6288;SDS011;3177;49.880;8.836;2023-01-29T03:50:39;7.83;;;6.63;;
6288;SDS011;3177;49.880;8.836;2023-01-29T03:53:13;11.20;;;7.93;;
6288;SDS011;3177;49.880;8.836;2023-01-29T03:55:45;9.03;;;7.20;;
6288;SDS011;3177;49.880;8.836;2023-01-29T03:58:19;8.67;;;6.80;;
6288;SDS011;3177;49.880;8.836;2023-01-29T04:00:51;9.23;;;6.50;;
6288;SDS011;3177;49.880;8.836;2023-01-29T04:03:19;6.17;;;5.53;;
6288;SDS011;3177;49.880;8.836;2023-01-29T04:05:53;7.87;;;6.63;;
6288;SDS011;3177;49.880;8.836;2023-01-29T04:08:23;9.03;;;7.13;;
6288;SDS011;3177;49.880;8.836;2023-01-29T04:10:52;9.40;;;5.80;;
6288;SDS011;3177;49.880;8.836;2023-01-29T04:13:21;8.03;;;6.00;;
6288;SDS011;3177;49.880;8.836;2023-01-29T04:15:49;11.73;;;6.93;;
6288;SDS011;3177;49.880;8.836;2023-01-29T04:18:19;7.40;;;6.30;;
6288;SDS011;3177;49.880;8.836;2023-01-29T04:20:46;8.07;;;6.63;;
6288;SDS011;3177;49.880;8.836;2023-01-29T04:23:20;8.33;;;6.67;;
6288;SDS011;3177;49.880;8.836;2023-01-29T04:25:51;6.37;;;5.77;;
6288;SDS011;3177;49.880;8.836;2023-01-29T04:28:20;8.40;;;6.77;;
6288;SDS011;3177;49.880;8.836;2023-01-29T04:30:50;8.33;;;7.10;;
6288;SDS011;3177;49.880;8.836;2023-01-29T04:33:26;8.43;;;7.03;;
6288;SDS011;3177;49.880;8.836;2023-01-29T04:36:02;8.27;;;6.13;;
6288;SDS011;3177;49.880;8.836;2023-01-29T04:38:36;7.33;;;6.50;;
6288;SDS011;3177;49.880;8.836;2023-01-29T04:41:10;10.83;;;7.13;;
6288;SDS011;3177;49.880;8.836;2023-01-29T04:43:40;10.00;;;7.13;;
6288;SDS011;3177;49.880;8.836;2023-01-29T04:46:11;9.37;;;7.20;;
6288;SDS011;3177;49.880;8.836;2023-01-29T04:48:44;8.37;;;7.20;;
6288;SDS011;3177;49.880;8.836;2023-01-29T04:51:14;10.47;;;7.47;;
6288;SDS011;3177;49.880;8.836;2023-01-29T04:53:46;9.00;;;7.87;;
6288;SDS011;3177;49.880;8.836;2023-01-29T04:56:17;12.47;;;8.27;;
6288;SDS011;3177;49.880;8.836;2023-01-29T04:58:47;9.57;;;8.07;;
6288;SDS011;3177;49.880;8.836;2023-01-29T05:01:16;7.77;;;7.03;;
6288;SDS011;3177;49.880;8.836;2023-01-29T05:03:45;8.63;;;7.27;;
6288;SDS011;3177;49.880;8.836;2023-01-29T05:06:13;9.23;;;7.53;;
6288;SDS011;3177;49.880;8.836;2023-01-29T05:08:41;8.83;;;7.50;;
6288;SDS011;3177;49.880;8.836;2023-01-29T05:11:10;11.57;;;8.07;;
6288;SDS011;3177;49.880;8.836;2023-01-29T05:13:38;10.03;;;7.37;;
6288;SDS011;3177;49.880;8.836;2023-01-29T05:16:07;10.13;;;7.40;;
6288;SDS011;3177;49.880;8.836;2023-01-29T05:18:35;10.17;;;7.43;;
6288;SDS011;3177;49.880;8.836;2023-01-29T05:21:04;9.73;;;6.80;;
6288;SDS011;3177;49.880;8.836;2023-01-29T05:23:33;9.67;;;7.10;;
6288;SDS011;3177;49.880;8.836;2023-01-29T05:26:00;7.27;;;6.30;;
6288;SDS011;3177;49.880;8.836;2023-01-29T05:28:28;8.67;;;6.77;;
6288;SDS011;3177;49.880;8.836;2023-01-29T05:30:55;8.63;;;6.83;;
6288;SDS011;3177;49.880;8.836;2023-01-29T05:33:22;8.43;;;6.90;;
6288;SDS011;3177;49.880;8.836;2023-01-29T05:35:50;9.43;;;6.87;;
6288;SDS011;3177;49.880;8.836;2023-01-29T05:38:17;7.10;;;6.40;;
6288;SDS011;3177;49.880;8.836;2023-01-29T05:40:45;7.20;;;6.30;;
6288;SDS011;3177;49.880;8.836;2023-01-29T05:43:13;9.23;;;6.97;;
6288;SDS011;3177;49.880;8.836;2023-01-29T05:45:42;8.80;;;6.90;;
6288;SDS011;3177;49.880;8.836;2023-01-29T05:48:09;9.40;;;6.33;;
6288;SDS011;3177;49.880;8.836;2023-01-29T05:50:36;8.90;;;6.73;;
6288;SDS011;3177;49.880;8.836;2023-01-29T05:53:03;7.33;;;6.63;;
6288;SDS011;3177;49.880;8.836;2023-01-29T05:55:30;7.37;;;6.43;;
6288;SDS011;3177;49.880;8.836;2023-01-29T05:57:57;10.10;;;7.03;;
6288;SDS011;3177;49.880;8.836;2023-01-29T06:00:25;6.53;;;5.93;;
6288;SDS011;3177;49.880;8.836;2023-01-29T06:02:53;8.63;;;5.77;;
6288;SDS011;3177;49.880;8.836;2023-01-29T06:05:20;7.97;;;6.13;;
6288;SDS011;3177;49.880;8.836;2023-01-29T06:07:47;7.53;;;6.73;;
6288;SDS011;3177;49.880;8.836;2023-01-29T06:10:15;9.03;;;6.73;;
6288;SDS011;3177;49.880;8.836;2023-01-29T06:12:43;6.60;;;6.00;;
6288;SDS011;3177;49.880;8.836;2023-01-29T06:15:10;8.27;;;5.93;;
6288;SDS011;3177;49.880;8.836;2023-01-29T06:17:39;9.10;;;6.37;;
6288;SDS011;3177;49.880;8.836;2023-01-29T06:20:08;6.97;;;6.27;;
6288;SDS011;3177;49.880;8.836;2023-01-29T06:22:36;8.80;;;6.30;;
6288;SDS011;3177;49.880;8.836;2023-01-29T06:25:03;9.07;;;6.70;;
6288;SDS011;3177;49.880;8.836;2023-01-29T06:27:30;9.53;;;6.90;;
6288;SDS011;3177;49.880;8.836;2023-01-29T06:29:57;8.30;;;6.73;;
6288;SDS011;3177;49.880;8.836;2023-01-29T06:32:24;6.80;;;6.10;;
6288;SDS011;3177;49.880;8.836;2023-01-29T06:34:51;9.40;;;6.13;;
6288;SDS011;3177;49.880;8.836;2023-01-29T06:37:20;8.77;;;5.93;;
6288;SDS011;3177;49.880;8.836;2023-01-29T06:39:47;8.37;;;6.37;;
6288;SDS011;3177;49.880;8.836;2023-01-29T06:42:14;7.70;;;6.70;;
6288;SDS011;3177;49.880;8.836;2023-01-29T06:44:41;8.43;;;7.07;;
6288;SDS011;3177;49.880;8.836;2023-01-29T06:47:08;7.83;;;6.87;;
6288;SDS011;3177;49.880;8.836;2023-01-29T06:49:35;9.40;;;7.47;;
6288;SDS011;3177;49.880;8.836;2023-01-29T06:52:02;11.13;;;8.27;;
6288;SDS011;3177;49.880;8.836;2023-01-29T06:54:31;12.10;;;8.20;;
6288;SDS011;3177;49.880;8.836;2023-01-29T06:56:58;11.03;;;7.90;;
6288;SDS011;3177;49.880;8.836;2023-01-29T06:59:25;13.93;;;7.77;;
6288;SDS011;3177;49.880;8.836;2023-01-29T07:01:52;10.30;;;7.97;;
6288;SDS011;3177;49.880;8.836;2023-01-29T07:04:19;11.20;;;6.93;;
6288;SDS011;3177;49.880;8.836;2023-01-29T07:06:46;13.47;;;8.63;;
6288;SDS011;3177;49.880;8.836;2023-01-29T07:09:13;11.17;;;8.70;;
6288;SDS011;3177;49.880;8.836;2023-01-29T07:11:41;10.77;;;8.23;;
6288;SDS011;3177;49.880;8.836;2023-01-29T07:14:09;10.27;;;7.87;;
6288;SDS011;3177;49.880;8.836;2023-01-29T07:16:36;10.23;;;8.17;;
6288;SDS011;3177;49.880;8.836;2023-01-29T07:19:03;12.67;;;9.00;;
6288;SDS011;3177;49.880;8.836;2023-01-29T07:21:30;13.50;;;8.77;;
6288;SDS011;3177;49.880;8.836;2023-01-29T07:23:57;19.70;;;9.67;;
6288;SDS011;3177;49.880;8.836;2023-01-29T07:26:24;7.50;;;6.50;;
6288;SDS011;3177;49.880;8.836;2023-01-29T07:28:52;8.77;;;7.40;;
6288;SDS011;3177;49.880;8.836;2023-01-29T07:31:20;7.80;;;7.00;;
6288;SDS011;3177;49.880;8.836;2023-01-29T07:33:47;7.47;;;6.33;;
6288;SDS011;3177;49.880;8.836;2023-01-29T07:36:14;7.20;;;6.40;;
6288;SDS011;3177;49.880;8.836;2023-01-29T07:38:41;8.63;;;6.70;;
6288;SDS011;3177;49.880;8.836;2023-01-29T07:41:08;8.67;;;7.57;;
6288;SDS011;3177;49.880;8.836;2023-01-29T07:43:36;10.30;;;7.23;;
6288;SDS011;3177;49.880;8.836;2023-01-29T07:46:04;9.83;;;7.63;;
6288;SDS011;3177;49.880;8.836;2023-01-29T07:48:32;7.40;;;6.67;;
6288;SDS011;3177;49.880;8.836;2023-01-29T07:50:59;9.30;;;7.37;;
6288;SDS011;3177;49.880;8.836;2023-01-29T07:53:29;10.73;;;8.07;;
6288;SDS011;3177;49.880;8.836;2023-01-29T07:55:56;10.87;;;8.40;;
6288;SDS011;3177;49.880;8.836;2023-01-29T07:58:23;10.07;;;7.67;;
6288;SDS011;3177;49.880;8.836;2023-01-29T08:00:50;12.20;;;7.60;;
6288;SDS011;3177;49.880;8.836;2023-01-29T08:03:19;10.67;;;8.17;;
6288;SDS011;3177;49.880;8.836;2023-01-29T08:05:46;8.70;;;7.23;;
6288;SDS011;3177;49.880;8.836;2023-01-29T08:08:13;11.20;;;8.57;;
6288;SDS011;3177;49.880;8.836;2023-01-29T08:10:41;10.23;;;7.30;;
6288;SDS011;3177;49.880;8.836;2023-01-29T08:13:08;7.13;;;6.43;;
6288;SDS011;3177;49.880;8.836;2023-01-29T08:15:35;8.90;;;6.60;;
6288;SDS011;3177;49.880;8.836;2023-01-29T08:18:03;10.70;;;8.07;;
6288;SDS011;3177;49.880;8.836;2023-01-29T08:20:31;10.00;;;7.70;;
6288;SDS011;3177;49.880;8.836;2023-01-29T08:22:59;10.73;;;6.90;;
6288;SDS011;3177;49.880;8.836;2023-01-29T08:25:26;6.67;;;6.07;;
6288;SDS011;3177;49.880;8.836;2023-01-29T08:27:54;8.27;;;7.10;;
6288;SDS011;3177;49.880;8.836;2023-01-29T08:30:22;8.43;;;6.87;;
6288;SDS011;3177;49.880;8.836;2023-01-29T08:32:49;7.33;;;6.17;;
6288;SDS011;3177;49.880;8.836;2023-01-29T08:35:16;7.97;;;6.47;;
6288;SDS011;3177;49.880;8.836;2023-01-29T08:37:46;8.23;;;6.30;;
6288;SDS011;3177;49.880;8.836;2023-01-29T08:40:17;11.93;;;7.10;;
6288;SDS011;3177;49.880;8.836;2023-01-29T08:42:45;8.03;;;7.07;;
6288;SDS011;3177;49.880;8.836;2023-01-29T08:45:12;8.60;;;7.40;;
6288;SDS011;3177;49.880;8.836;2023-01-29T08:47:43;8.90;;;7.93;;
6288;SDS011;3177;49.880;8.836;2023-01-29T08:50:10;10.83;;;8.40;;
6288;SDS011;3177;49.880;8.836;2023-01-29T08:52:37;10.07;;;8.33;;
6288;SDS011;3177;49.880;8.836;2023-01-29T08:55:06;9.77;;;7.63;;
6288;SDS011;3177;49.880;8.836;2023-01-29T08:57:35;9.63;;;7.50;;
6288;SDS011;3177;49.880;8.836;2023-01-29T09:00:02;7.87;;;6.97;;
6288;SDS011;3177;49.880;8.836;2023-01-29T09:02:29;9.33;;;7.53;;
6288;SDS011;3177;49.880;8.836;2023-01-29T09:04:57;10.97;;;7.53;;
6288;SDS011;3177;49.880;8.836;2023-01-29T09:07:25;12.80;;;7.00;;
6288;SDS011;3177;49.880;8.836;2023-01-29T09:09:52;10.07;;;7.70;;
6288;SDS011;3177;49.880;8.836;2023-01-29T09:12:21;8.23;;;7.30;;
6288;SDS011;3177;49.880;8.836;2023-01-29T09:17:22;9.53;;;7.07;;
6288;SDS011;3177;49.880;8.836;2023-01-29T09:19:49;10.70;;;7.27;;
6288;SDS011;3177;49.880;8.836;2023-01-29T09:22:17;8.27;;;6.93;;
6288;SDS011;3177;49.880;8.836;2023-01-29T09:24:44;8.07;;;6.67;;
6288;SDS011;3177;49.880;8.836;2023-01-29T09:27:12;8.27;;;6.53;;
6288;SDS011;3177;49.880;8.836;2023-01-29T09:29:40;7.53;;;6.73;;
6288;SDS011;3177;49.880;8.836;2023-01-29T09:32:07;7.40;;;6.70;;
6288;SDS011;3177;49.880;8.836;2023-01-29T09:34:34;11.37;;;7.50;;
6288;SDS011;3177;49.880;8.836;2023-01-29T09:37:01;7.20;;;6.50;;
6288;SDS011;3177;49.880;8.836;2023-01-29T09:39:28;8.40;;;7.17;;
6288;SDS011;3177;49.880;8.836;2023-01-29T09:41:57;7.57;;;6.33;;
6288;SDS011;3177;49.880;8.836;2023-01-29T09:44:28;7.70;;;6.10;;
6288;SDS011;3177;49.880;8.836;2023-01-29T09:47:00;11.83;;;7.00;;
6288;SDS011;3177;49.880;8.836;2023-01-29T09:49:30;6.90;;;6.20;;
6288;SDS011;3177;49.880;8.836;2023-01-29T09:52:00;11.33;;;6.90;;
6288;SDS011;3177;49.880;8.836;2023-01-29T09:54:29;7.23;;;6.47;;
6288;SDS011;3177;49.880;8.836;2023-01-29T09:56:57;10.60;;;6.63;;
6288;SDS011;3177;49.880;8.836;2023-01-29T09:59:28;7.23;;;6.37;;
6288;SDS011;3177;49.880;8.836;2023-01-29T10:01:58;10.83;;;7.70;;
6288;SDS011;3177;49.880;8.836;2023-01-29T10:04:42;7.97;;;7.07;;
6288;SDS011;3177;49.880;8.836;2023-01-29T10:07:19;8.53;;;7.43;;
6288;SDS011;3177;49.880;8.836;2023-01-29T10:10:02;7.97;;;7.17;;
6288;SDS011;3177;49.880;8.836;2023-01-29T10:12:44;8.80;;;7.60;;
6288;SDS011;3177;49.880;8.836;2023-01-29T10:15:19;7.60;;;6.90;;
6288;SDS011;3177;49.880;8.836;2023-01-29T10:17:53;7.73;;;6.87;;
6288;SDS011;3177;49.880;8.836;2023-01-29T10:20:30;7.70;;;6.90;;
6288;SDS011;3177;49.880;8.836;2023-01-29T10:23:03;8.63;;;6.87;;
6288;SDS011;3177;49.880;8.836;2023-01-29T10:25:34;7.23;;;6.40;;
6288;SDS011;3177;49.880;8.836;2023-01-29T10:28:04;8.83;;;6.57;;
6288;SDS011;3177;49.880;8.836;2023-01-29T10:30:43;7.37;;;6.57;;
6288;SDS011;3177;49.880;8.836;2023-01-29T10:33:15;7.30;;;6.60;;
6288;SDS011;3177;49.880;8.836;2023-01-29T10:35:45;7.50;;;6.80;;
6288;SDS011;3177;49.880;8.836;2023-01-29T10:38:17;8.17;;;7.10;;
6288;SDS011;3177;49.880;8.836;2023-01-29T10:40:48;8.77;;;7.43;;
6288;SDS011;3177;49.880;8.836;2023-01-29T10:43:19;8.27;;;7.03;;
6288;SDS011;3177;49.880;8.836;2023-01-29T10:45:48;8.13;;;6.90;;
6288;SDS011;3177;49.880;8.836;2023-01-29T10:48:27;7.23;;;6.60;;
6288;SDS011;3177;49.880;8.836;2023-01-29T10:51:02;11.70;;;7.20;;
6288;SDS011;3177;49.880;8.836;2023-01-29T10:53:38;7.73;;;7.00;;
6288;SDS011;3177;49.880;8.836;2023-01-29T10:56:10;8.37;;;7.40;;
6288;SDS011;3177;49.880;8.836;2023-01-29T10:58:40;8.57;;;7.77;;
6288;SDS011;3177;49.880;8.836;2023-01-29T11:01:09;9.63;;;7.10;;
6288;SDS011;3177;49.880;8.836;2023-01-29T11:03:37;8.70;;;6.97;;
6288;SDS011;3177;49.880;8.836;2023-01-29T11:06:09;8.60;;;7.30;;
6288;SDS011;3177;49.880;8.836;2023-01-29T11:08:41;7.90;;;7.10;;
6288;SDS011;3177;49.880;8.836;2023-01-29T11:11:11;8.20;;;7.40;;
6288;SDS011;3177;49.880;8.836;2023-01-29T11:13:41;8.83;;;7.03;;
6288;SDS011;3177;49.880;8.836;2023-01-29T11:16:11;7.67;;;6.67;;
6288;SDS011;3177;49.880;8.836;2023-01-29T11:18:54;7.60;;;6.90;;
6288;SDS011;3177;49.880;8.836;2023-01-29T11:21:28;10.40;;;8.37;;
6288;SDS011;3177;49.880;8.836;2023-01-29T11:24:12;7.30;;;6.17;;
6288;SDS011;3177;49.880;8.836;2023-01-29T11:26:41;10.03;;;8.40;;
6288;SDS011;3177;49.880;8.836;2023-01-29T11:31:59;8.17;;;7.00;;
6288;SDS011;3177;49.880;8.836;2023-01-29T11:34:26;9.50;;;7.10;;
6288;SDS011;3177;49.880;8.836;2023-01-29T11:36:56;8.33;;;7.17;;
6288;SDS011;3177;49.880;8.836;2023-01-29T11:42:21;10.40;;;8.50;;
6288;SDS011;3177;49.880;8.836;2023-01-29T11:44:56;8.50;;;7.60;;
6288;SDS011;3177;49.880;8.836;2023-01-29T11:47:26;8.43;;;7.57;;
6288;SDS011;3177;49.880;8.836;2023-01-29T11:49:55;12.70;;;8.87;;
6288;SDS011;3177;49.880;8.836;2023-01-29T11:52:25;3.87;;;3.57;;
6288;SDS011;3177;49.880;8.836;2023-01-29T11:54:53;8.27;;;7.37;;
6288;SDS011;3177;49.880;8.836;2023-01-29T11:57:39;8.93;;;7.67;;
6288;SDS011;3177;49.880;8.836;2023-01-29T12:00:12;8.37;;;6.97;;
6288;SDS011;3177;49.880;8.836;2023-01-29T12:02:44;10.37;;;8.57;;
6288;SDS011;3177;49.880;8.836;2023-01-29T12:05:13;9.27;;;8.07;;
6288;SDS011;3177;49.880;8.836;2023-01-29T12:07:45;7.33;;;6.60;;
6288;SDS011;3177;49.880;8.836;2023-01-29T12:13:05;9.37;;;7.93;;
6288;SDS011;3177;49.880;8.836;2023-01-29T12:15:32;8.20;;;7.33;;
6288;SDS011;3177;49.880;8.836;2023-01-29T12:18:02;8.23;;;7.17;;
6288;SDS011;3177;49.880;8.836;2023-01-29T12:20:32;8.60;;;7.67;;
6288;SDS011;3177;49.880;8.836;2023-01-29T12:23:03;7.37;;;5.97;;
6288;SDS011;3177;49.880;8.836;2023-01-29T12:25:38;9.33;;;8.07;;
6288;SDS011;3177;49.880;8.836;2023-01-29T12:28:06;10.53;;;8.17;;
6288;SDS011;3177;49.880;8.836;2023-01-29T12:30:35;10.40;;;8.63;;
6288;SDS011;3177;49.880;8.836;2023-01-29T12:33:08;10.17;;;8.20;;
6288;SDS011;3177;49.880;8.836;2023-01-29T12:35:40;9.77;;;7.83;;
6288;SDS011;3177;49.880;8.836;2023-01-29T12:38:12;10.50;;;9.00;;
6288;SDS011;3177;49.880;8.836;2023-01-29T12:40:42;11.40;;;9.07;;
6288;SDS011;3177;49.880;8.836;2023-01-29T12:43:12;9.47;;;8.13;;
6288;SDS011;3177;49.880;8.836;2023-01-29T12:45:41;9.60;;;8.60;;
6288;SDS011;3177;49.880;8.836;2023-01-29T12:48:09;10.93;;;8.50;;
6288;SDS011;3177;49.880;8.836;2023-01-29T12:50:40;7.40;;;6.60;;
6288;SDS011;3177;49.880;8.836;2023-01-29T12:53:11;8.13;;;7.17;;
6288;SDS011;3177;49.880;8.836;2023-01-29T12:55:43;7.83;;;7.03;;
6288;SDS011;3177;49.880;8.836;2023-01-29T12:58:13;12.00;;;9.00;;
6288;SDS011;3177;49.880;8.836;2023-01-29T13:00:42;9.07;;;8.07;;
6288;SDS011;3177;49.880;8.836;2023-01-29T13:03:13;11.07;;;7.63;;
6288;SDS011;3177;49.880;8.836;2023-01-29T13:05:58;10.53;;;7.97;;
6288;SDS011;3177;49.880;8.836;2023-01-29T13:08:26;10.47;;;8.90;;
6288;SDS011;3177;49.880;8.836;2023-01-29T13:10:57;10.17;;;8.27;;
6288;SDS011;3177;49.880;8.836;2023-01-29T13:13:26;11.87;;;8.73;;
6288;SDS011;3177;49.880;8.836;2023-01-29T13:15:56;10.73;;;8.23;;
6288;SDS011;3177;49.880;8.836;2023-01-29T13:18:32;9.37;;;6.80;;
6288;SDS011;3177;49.880;8.836;2023-01-29T13:21:02;10.90;;;7.93;;
6288;SDS011;3177;49.880;8.836;2023-01-29T13:23:32;9.67;;;7.87;;
6288;SDS011;3177;49.880;8.836;2023-01-29T13:26:02;15.57;;;10.50;;
6288;SDS011;3177;49.880;8.836;2023-01-29T13:28:29;9.63;;;7.03;;
6288;SDS011;3177;49.880;8.836;2023-01-29T13:31:10;8.97;;;7.50;;
6288;SDS011;3177;49.880;8.836;2023-01-29T13:33:39;10.17;;;8.17;;
6288;SDS011;3177;49.880;8.836;2023-01-29T13:36:10;9.50;;;7.17;;
6288;SDS011;3177;49.880;8.836;2023-01-29T13:38:42;9.30;;;8.13;;
6288;SDS011;3177;49.880;8.836;2023-01-29T13:41:11;10.73;;;8.20;;
6288;SDS011;3177;49.880;8.836;2023-01-29T13:43:39;10.07;;;7.67;;
6288;SDS011;3177;49.880;8.836;2023-01-29T13:46:07;9.17;;;8.23;;
6288;SDS011;3177;49.880;8.836;2023-01-29T13:48:39;10.60;;;8.90;;
6288;SDS011;3177;49.880;8.836;2023-01-29T13:51:09;10.57;;;8.27;;
6288;SDS011;3177;49.880;8.836;2023-01-29T13:53:39;12.07;;;8.87;;
6288;SDS011;3177;49.880;8.836;2023-01-29T13:58:55;9.87;;;7.80;;
6288;SDS011;3177;49.880;8.836;2023-01-29T14:04:14;9.30;;;7.80;;
6288;SDS011;3177;49.880;8.836;2023-01-29T14:06:49;8.83;;;7.93;;
6288;SDS011;3177;49.880;8.836;2023-01-29T14:09:30;10.50;;;7.50;;
6288;SDS011;3177;49.880;8.836;2023-01-29T14:11:58;7.00;;;5.57;;
6288;SDS011;3177;49.880;8.836;2023-01-29T14:17:12;7.97;;;7.13;;
6288;SDS011;3177;49.880;8.836;2023-01-29T14:19:45;8.70;;;6.43;;
6288;SDS011;3177;49.880;8.836;2023-01-29T14:22:16;8.77;;;7.77;;
6288;SDS011;3177;49.880;8.836;2023-01-29T14:24:44;8.03;;;6.73;;
6288;SDS011;3177;49.880;8.836;2023-01-29T14:27:13;13.00;;;8.27;;
6288;SDS011;3177;49.880;8.836;2023-01-29T14:29:45;9.00;;;7.23;;
6288;SDS011;3177;49.880;8.836;2023-01-29T14:32:17;8.77;;;5.87;;
6288;SDS011;3177;49.880;8.836;2023-01-29T14:34:46;9.30;;;8.30;;
6288;SDS011;3177;49.880;8.836;2023-01-29T14:37:18;9.97;;;8.23;;
6288;SDS011;3177;49.880;8.836;2023-01-29T14:39:46;11.17;;;8.17;;
6288;SDS011;3177;49.880;8.836;2023-01-29T14:42:16;11.27;;;8.40;;
6288;SDS011;3177;49.880;8.836;2023-01-29T14:44:52;12.60;;;8.70;;
6288;SDS011;3177;49.880;8.836;2023-01-29T14:47:50;10.90;;;8.87;;
6288;SDS011;3177;49.880;8.836;2023-01-29T14:53:00;11.10;;;8.10;;
6288;SDS011;3177;49.880;8.836;2023-01-29T14:55:29;10.83;;;8.53;;
6288;SDS011;3177;49.880;8.836;2023-01-29T14:58:01;12.40;;;8.40;;
6288;SDS011;3177;49.880;8.836;2023-01-29T15:00:30;12.60;;;8.30;;
6288;SDS011;3177;49.880;8.836;2023-01-29T15:03:00;9.83;;;8.53;;
6288;SDS011;3177;49.880;8.836;2023-01-29T15:05:31;12.57;;;8.27;;
6288;SDS011;3177;49.880;8.836;2023-01-29T15:08:05;7.53;;;6.70;;
6288;SDS011;3177;49.880;8.836;2023-01-29T15:10:36;12.50;;;8.87;;
6288;SDS011;3177;49.880;8.836;2023-01-29T15:13:07;10.47;;;8.30;;
6288;SDS011;3177;49.880;8.836;2023-01-29T15:15:35;10.60;;;8.57;;
6288;SDS011;3177;49.880;8.836;2023-01-29T15:18:06;11.57;;;9.07;;
6288;SDS011;3177;49.880;8.836;2023-01-29T15:20:34;10.27;;;8.63;;
6288;SDS011;3177;49.880;8.836;2023-01-29T15:23:02;10.03;;;8.83;;
6288;SDS011;3177;49.880;8.836;2023-01-29T15:25:32;10.40;;;8.20;;
6288;SDS011;3177;49.880;8.836;2023-01-29T15:28:00;10.13;;;7.90;;
6288;SDS011;3177;49.880;8.836;2023-01-29T15:30:32;11.93;;;8.60;;
6288;SDS011;3177;49.880;8.836;2023-01-29T15:33:00;12.03;;;9.17;;
6288;SDS011;3177;49.880;8.836;2023-01-29T15:35:30;11.57;;;9.63;;
6288;SDS011;3177;49.880;8.836;2023-01-29T15:38:01;15.73;;;10.27;;
6288;SDS011;3177;49.880;8.836;2023-01-29T15:40:28;13.77;;;10.03;;
6288;SDS011;3177;49.880;8.836;2023-01-29T15:42:55;12.03;;;7.03;;
6288;SDS011;3177;49.880;8.836;2023-01-29T15:45:23;14.40;;;9.07;;
6288;SDS011;3177;49.880;8.836;2023-01-29T15:47:51;14.60;;;10.43;;
6288;SDS011;3177;49.880;8.836;2023-01-29T15:50:19;13.57;;;10.33;;
6288;SDS011;3177;49.880;8.836;2023-01-29T15:52:48;17.10;;;10.73;;